createdAt,value
2022-09-11T00:01:59.007Z,28.17
2022-09-11T00:04:27.388Z,29.13
2022-09-11T00:06:54.354Z,28.87
2022-09-11T00:09:21.137Z,29.30
2022-09-11T00:11:47.782Z,27.90
2022-09-11T00:14:15.068Z,27.73
2022-09-11T00:16:47.658Z,29.50
2022-09-11T00:19:19.597Z,30.00
2022-09-11T00:21:47.362Z,28.40
2022-09-11T00:24:14.347Z,29.70
2022-09-11T00:26:42.643Z,31.70
2022-09-11T00:29:09.846Z,32.73
2022-09-11T00:31:36.916Z,30.80
2022-09-11T00:34:07.862Z,30.47
2022-09-11T00:36:54.891Z,32.10
2022-09-11T00:39:22.130Z,31.53
2022-09-11T00:41:52.170Z,32.53
2022-09-11T00:44:24.763Z,31.70
2022-09-11T00:46:57.241Z,32.27
2022-09-11T00:49:40.346Z,31.67
2022-09-11T00:52:22.657Z,31.83
2022-09-11T00:54:56.982Z,31.10
2022-09-11T00:57:29.147Z,30.97
2022-09-11T01:00:01.430Z,31.10
2022-09-11T01:02:32.691Z,31.07
2022-09-11T01:05:00.172Z,34.37
2022-09-11T01:07:27.126Z,31.80
2022-09-11T01:09:54.257Z,33.27
2022-09-11T01:12:41.078Z,32.77
2022-09-11T01:15:09.630Z,33.90
2022-09-11T01:18:03.372Z,34.77
2022-09-11T01:21:02.799Z,34.90
2022-09-11T01:23:48.919Z,34.30
2022-09-11T01:26:20.270Z,31.93
2022-09-11T01:32:09.308Z,34.70
2022-09-11T01:35:10.755Z,34.70
2022-09-11T01:37:41.586Z,34.40
2022-09-11T01:40:22.869Z,35.03
2022-09-11T01:43:05.881Z,34.70
2022-09-11T01:45:46.230Z,35.77
2022-09-11T01:48:26.411Z,36.30
2022-09-11T01:50:57.092Z,36.67
2022-09-11T01:53:27.404Z,35.53
2022-09-11T01:56:21.687Z,36.93
2022-09-11T01:58:52.251Z,37.13
2022-09-11T02:01:27.255Z,38.07
2022-09-11T02:04:07.533Z,36.60
2022-09-11T02:06:52.240Z,39.27
2022-09-11T02:09:26.031Z,38.50
2022-09-11T02:11:55.462Z,38.80
2022-09-11T02:14:40.782Z,38.43
2022-09-11T02:17:21.056Z,37.87
2022-09-11T02:20:12.313Z,39.10
2022-09-11T02:22:40.462Z,40.07
2022-09-11T02:25:22.601Z,39.17
2022-09-11T02:28:04.401Z,39.77
2022-09-11T02:30:33.905Z,38.60
2022-09-11T02:33:01.874Z,41.93
2022-09-11T02:35:43.812Z,41.40
2022-09-11T02:38:32.910Z,51.70
2022-09-11T02:41:15.140Z,40.97
2022-09-11T02:44:11.573Z,39.97
2022-09-11T02:46:52.956Z,41.57
2022-09-11T02:49:55.120Z,40.40
2022-09-11T02:52:37.711Z,41.37
2022-09-11T02:55:12.588Z,43.47
2022-09-11T02:57:46.624Z,43.80
2022-09-11T03:00:14.008Z,45.53
2022-09-11T03:02:43.759Z,44.27
2022-09-11T03:05:15.615Z,57.93
2022-09-11T03:07:42.550Z,42.63
2022-09-11T03:10:12.169Z,49.20
2022-09-11T03:12:39.852Z,41.87
2022-09-11T03:15:08.313Z,42.30
2022-09-11T03:17:35.426Z,45.90
2022-09-11T03:20:06.149Z,53.87
2022-09-11T03:22:40.929Z,46.07
2022-09-11T03:25:14.826Z,41.17
2022-09-11T03:28:11.513Z,41.30
2022-09-11T03:30:40.250Z,43.50
2022-09-11T03:33:24.755Z,42.43
2022-09-11T03:36:05.621Z,44.70
2022-09-11T03:38:44.975Z,49.00
2022-09-11T03:41:17.254Z,42.10
2022-09-11T03:43:53.463Z,47.47
2022-09-11T03:46:25.935Z,42.90
2022-09-11T03:49:09.929Z,49.33
2022-09-11T03:51:38.330Z,50.17
2022-09-11T03:54:21.020Z,40.47
2022-09-11T03:56:51.848Z,45.93
2022-09-11T03:59:21.008Z,39.07
2022-09-11T04:01:50.741Z,41.57
2022-09-11T04:04:18.020Z,37.93
2022-09-11T04:06:47.558Z,41.87
2022-09-11T04:09:14.820Z,42.80
2022-09-11T04:11:43.949Z,47.00
2022-09-11T04:14:19.319Z,45.23
2022-09-11T04:16:46.310Z,56.57
2022-09-11T04:19:13.357Z,46.50
2022-09-11T04:21:42.421Z,47.80
2022-09-11T04:24:15.888Z,57.03
2022-09-11T04:26:46.960Z,45.20
2022-09-11T04:29:23.333Z,47.20
2022-09-11T04:31:51.609Z,43.57
2022-09-11T04:34:19.304Z,44.80
2022-09-11T04:36:47.213Z,47.57
2022-09-11T04:39:19.358Z,57.40
2022-09-11T04:41:49.671Z,46.33
2022-09-11T04:44:26.934Z,41.37
2022-09-11T04:47:04.670Z,42.80
2022-09-11T04:49:32.278Z,45.03
2022-09-11T04:52:16.983Z,48.60
2022-09-11T04:54:47.012Z,47.20
2022-09-11T04:57:16.634Z,35.27
2022-09-11T04:59:48.505Z,38.30
2022-09-11T05:02:18.170Z,37.10
2022-09-11T05:04:52.296Z,40.77
2022-09-11T05:07:19.428Z,39.40
2022-09-11T05:09:49.329Z,37.13
2022-09-11T05:12:18.267Z,30.53
2022-09-11T05:14:46.624Z,32.43
2022-09-11T05:17:19.268Z,35.60
2022-09-11T05:19:47.058Z,32.67
2022-09-11T05:22:16.142Z,32.37
2022-09-11T05:24:48.377Z,30.30
2022-09-11T05:27:15.263Z,33.17
2022-09-11T05:29:42.289Z,26.37
2022-09-11T05:32:14.442Z,27.07
2022-09-11T05:34:44.983Z,27.53
2022-09-11T05:37:15.187Z,26.83
2022-09-11T05:39:48.069Z,26.07
2022-09-11T05:42:21.375Z,27.80
2022-09-11T05:44:52.628Z,26.80
2022-09-11T05:47:21.090Z,25.27
2022-09-11T05:49:50.980Z,26.67
2022-09-11T05:52:18.263Z,27.70
2022-09-11T05:54:46.894Z,28.90
2022-09-11T05:57:16.965Z,26.43
2022-09-11T05:59:46.002Z,28.50
2022-09-11T06:02:16.257Z,27.70
2022-09-11T06:04:51.085Z,28.57
2022-09-11T06:07:23.488Z,27.30
2022-09-11T06:09:53.947Z,27.10
2022-09-11T06:12:22.346Z,28.03
2022-09-11T06:14:52.843Z,26.83
2022-09-11T06:17:21.493Z,28.30
2022-09-11T06:19:48.196Z,25.90
2022-09-11T06:22:16.298Z,27.67
2022-09-11T06:24:44.573Z,27.43
2022-09-11T06:27:11.525Z,26.57
2022-09-11T06:29:44.093Z,24.83
2022-09-11T06:32:13.465Z,24.93
2022-09-11T06:34:43.522Z,26.10
2022-09-11T06:37:13.703Z,25.33
2022-09-11T06:39:48.244Z,26.83
2022-09-11T06:42:25.353Z,26.57
2022-09-11T06:45:00.156Z,27.80
2022-09-11T06:47:29.477Z,24.67
2022-09-11T06:50:12.073Z,25.60
2022-09-11T06:53:15.502Z,26.00
2022-09-11T06:55:53.923Z,25.27
2022-09-11T06:58:23.569Z,24.80
2022-09-11T07:00:52.618Z,25.60
2022-09-11T07:03:23.270Z,24.97
2022-09-11T07:05:52.112Z,24.43
2022-09-11T07:08:24.740Z,25.83
2022-09-11T07:10:57.273Z,26.63
2022-09-11T07:13:24.466Z,26.77
2022-09-11T07:16:05.788Z,26.23
2022-09-11T07:18:43.224Z,26.50
2022-09-11T07:21:21.730Z,28.20
2022-09-11T07:23:54.479Z,27.83
2022-09-11T07:26:23.308Z,26.53
2022-09-11T07:28:55.075Z,26.00
2022-09-11T07:31:29.402Z,25.67
2022-09-11T07:33:57.630Z,26.10
2022-09-11T07:36:28.016Z,24.07
2022-09-11T07:38:57.892Z,24.60
2022-09-11T07:41:33.834Z,25.00
2022-09-11T07:44:06.119Z,24.47
2022-09-11T07:46:35.347Z,24.77
2022-09-11T07:49:12.502Z,24.87
2022-09-11T07:51:57.829Z,24.97
2022-09-11T07:54:34.879Z,26.83
2022-09-11T07:57:03.472Z,26.53
2022-09-11T07:59:31.369Z,24.63
2022-09-11T08:02:00.284Z,25.80
2022-09-11T08:04:28.944Z,25.10
2022-09-11T08:06:56.950Z,25.23
2022-09-11T08:09:30.946Z,24.37
2022-09-11T08:12:02.303Z,25.77
2022-09-11T08:14:31.691Z,25.90
2022-09-11T08:17:06.187Z,26.07
2022-09-11T08:19:33.327Z,25.47
2022-09-11T08:22:05.262Z,25.90
2022-09-11T08:27:43.126Z,27.20
2022-09-11T08:30:16.425Z,24.27
2022-09-11T08:32:43.418Z,26.47
2022-09-11T08:35:13.365Z,23.30
2022-09-11T08:37:45.011Z,25.13
2022-09-11T08:40:16.901Z,27.00
2022-09-11T08:43:00.997Z,27.00
2022-09-11T08:45:33.953Z,26.77
2022-09-11T08:48:09.254Z,24.47
2022-09-11T08:50:45.840Z,26.20
2022-09-11T08:56:11.412Z,24.83
2022-09-11T08:59:18.887Z,23.40
2022-09-11T09:02:39.288Z,22.37
2022-09-11T09:05:32.458Z,24.30
2022-09-11T09:08:18.373Z,22.47
2022-09-11T09:10:53.032Z,24.97
2022-09-11T09:13:39.499Z,24.30
2022-09-11T09:16:31.437Z,23.70
2022-09-11T09:19:03.248Z,23.20
2022-09-11T09:21:32.182Z,22.63
2022-09-11T09:24:03.795Z,21.73
2022-09-11T09:26:40.250Z,22.90
2022-09-11T09:29:23.914Z,21.93
2022-09-11T09:31:54.408Z,20.07
2022-09-11T09:34:31.251Z,21.53
2022-09-11T09:37:27.997Z,20.93
2022-09-11T09:39:55.876Z,19.30
2022-09-11T09:42:44.891Z,20.20
2022-09-11T09:45:26.502Z,20.23
2022-09-11T09:47:56.305Z,19.00
2022-09-11T09:50:33.409Z,17.97
2022-09-11T09:53:11.477Z,17.40
2022-09-11T09:55:41.264Z,16.77
2022-09-11T09:58:07.906Z,17.30
2022-09-11T10:00:37.319Z,17.63
2022-09-11T10:03:21.969Z,20.03
2022-09-11T10:06:10.439Z,19.03
2022-09-11T10:08:40.520Z,18.67
2022-09-11T10:11:11.091Z,18.20
2022-09-11T10:13:53.604Z,18.30
2022-09-11T10:16:21.975Z,18.57
2022-09-11T10:18:53.093Z,17.70
2022-09-11T10:24:42.945Z,17.20
2022-09-11T10:27:21.060Z,18.07
2022-09-11T10:30:02.445Z,17.50
2022-09-11T10:32:42.869Z,17.33
2022-09-11T10:35:19.385Z,17.90
2022-09-11T10:38:13.774Z,16.20
2022-09-11T10:41:22.156Z,17.23
2022-09-11T10:43:51.331Z,16.50
2022-09-11T10:46:17.853Z,17.80
2022-09-11T10:49:00.845Z,17.77
2022-09-11T10:51:30.033Z,17.30
2022-09-11T10:54:24.401Z,18.53
2022-09-11T10:57:05.793Z,17.10
2022-09-11T11:00:07.946Z,17.13
2022-09-11T11:02:52.765Z,16.50
2022-09-11T11:05:45.200Z,15.53
2022-09-11T11:08:42.928Z,16.47
2022-09-11T11:11:40.706Z,16.40
2022-09-11T11:14:21.257Z,14.97
2022-09-11T11:17:06.175Z,18.00
2022-09-11T11:19:51.549Z,17.43
2022-09-11T11:22:36.994Z,17.87
2022-09-11T11:25:21.640Z,15.23
2022-09-11T11:28:18.264Z,14.60
2022-09-11T11:30:50.764Z,16.20
2022-09-11T11:33:20.175Z,16.30
2022-09-11T11:35:52.755Z,16.47
2022-09-11T11:38:24.304Z,16.80
2022-09-11T11:41:25.726Z,15.40
2022-09-11T11:44:32.800Z,15.20
2022-09-11T11:47:05.080Z,14.83
2022-09-11T11:49:55.298Z,15.63
2022-09-11T11:52:49.488Z,14.20
2022-09-11T11:55:20.782Z,14.83
2022-09-11T11:58:01.732Z,14.10
2022-09-11T12:00:29.609Z,14.93
2022-09-11T12:03:42.919Z,15.60
2022-09-11T12:06:11.645Z,16.07
2022-09-11T12:09:00.127Z,15.27
2022-09-11T12:11:40.198Z,13.43
2022-09-11T12:14:39.756Z,13.97
2022-09-11T12:17:29.990Z,14.37
2022-09-11T12:20:12.448Z,13.30
2022-09-11T12:22:53.635Z,14.33
2022-09-11T12:25:33.685Z,21.73
2022-09-11T12:28:10.932Z,14.07
2022-09-11T12:31:08.002Z,16.13
2022-09-11T12:33:41.027Z,13.40
2022-09-11T12:36:17.614Z,13.60
2022-09-11T12:39:25.191Z,14.30
2022-09-11T12:41:52.009Z,12.60
2022-09-11T12:44:30.050Z,14.63
2022-09-11T12:46:56.663Z,12.73
2022-09-11T12:49:24.189Z,13.80
2022-09-11T12:51:55.936Z,13.63
2022-09-11T12:54:25.056Z,13.07
2022-09-11T12:57:06.889Z,12.93
2022-09-11T12:59:37.964Z,12.97
2022-09-11T13:02:16.419Z,12.93
2022-09-11T13:04:43.691Z,12.63
2022-09-11T13:07:26.488Z,12.90
2022-09-11T13:09:54.397Z,13.10
2022-09-11T13:12:23.935Z,13.50
2022-09-11T13:14:56.282Z,10.37
2022-09-11T13:17:30.341Z,11.20
2022-09-11T13:20:21.528Z,10.33
2022-09-11T13:22:49.109Z,9.57
2022-09-11T13:25:28.272Z,9.90
2022-09-11T13:27:57.143Z,8.43
2022-09-11T13:30:24.755Z,9.80
2022-09-11T13:33:03.277Z,9.33
2022-09-11T13:35:30.088Z,9.10
2022-09-11T13:38:02.508Z,9.00
2022-09-11T13:40:56.963Z,7.80
2022-09-11T13:43:29.761Z,6.50
2022-09-11T13:46:10.562Z,6.50
2022-09-11T13:48:37.354Z,8.33
2022-09-11T13:51:05.619Z,7.20
2022-09-11T13:53:33.661Z,7.33
2022-09-11T13:56:00.310Z,7.33
2022-09-11T13:58:35.218Z,7.00
2022-09-11T14:01:12.326Z,6.40
2022-09-11T14:03:43.452Z,6.80
2022-09-11T14:06:14.304Z,6.50
2022-09-11T14:08:50.066Z,6.90
2022-09-11T14:11:26.058Z,6.87
2022-09-11T14:14:00.153Z,7.30
2022-09-11T14:16:34.572Z,6.83
2022-09-11T14:19:11.009Z,6.83
2022-09-11T14:21:39.467Z,7.30
2022-09-11T14:24:24.353Z,7.20
2022-09-11T14:26:59.550Z,6.53
2022-09-11T14:29:31.607Z,6.83
2022-09-11T14:32:27.511Z,6.10
2022-09-11T14:34:54.506Z,5.47
2022-09-11T14:37:21.778Z,6.00
2022-09-11T14:40:00.179Z,5.50
2022-09-11T14:42:29.119Z,5.70
2022-09-11T14:44:56.134Z,5.83
2022-09-11T14:47:25.296Z,5.90
2022-09-11T14:49:53.558Z,6.10
2022-09-11T14:52:24.903Z,6.03
2022-09-11T14:54:53.888Z,6.17
2022-09-11T14:57:26.278Z,5.87
2022-09-11T14:59:53.138Z,5.40
2022-09-11T15:02:22.302Z,6.30
2022-09-11T15:04:53.429Z,5.33
2022-09-11T15:07:23.308Z,5.57
2022-09-11T15:09:53.136Z,4.87
2022-09-11T15:12:20.684Z,5.50
2022-09-11T15:14:57.777Z,6.20
2022-09-11T15:17:25.592Z,5.63
2022-09-11T15:19:54.341Z,6.00
2022-09-11T15:22:21.289Z,5.97
2022-09-11T15:24:49.860Z,5.80
2022-09-11T15:27:19.049Z,5.70
2022-09-11T15:29:46.149Z,5.60
2022-09-11T15:32:14.467Z,6.17
2022-09-11T15:34:42.015Z,6.03
2022-09-11T15:37:08.689Z,5.80
2022-09-11T15:39:35.444Z,6.33
2022-09-11T15:42:02.188Z,5.77
2022-09-11T15:44:29.098Z,5.57
2022-09-11T15:46:57.407Z,5.30
2022-09-11T15:49:25.457Z,5.47
2022-09-11T15:51:53.960Z,5.70
2022-09-11T15:54:23.347Z,5.87
2022-09-11T15:56:51.281Z,5.50
2022-09-11T15:59:18.135Z,6.13
2022-09-11T16:01:45.153Z,6.30
2022-09-11T16:04:14.474Z,6.20
2022-09-11T16:06:43.027Z,5.50
2022-09-11T16:09:12.798Z,5.70
2022-09-11T16:11:43.907Z,5.60
2022-09-11T16:14:18.788Z,5.70
2022-09-11T16:16:47.181Z,6.63
2022-09-11T16:19:18.567Z,6.83
2022-09-11T16:21:46.580Z,6.43
2022-09-11T16:24:15.515Z,6.70
2022-09-11T16:26:44.039Z,6.10
2022-09-11T16:29:12.487Z,6.60
2022-09-11T16:31:40.055Z,5.97
2022-09-11T16:34:07.346Z,6.90
2022-09-11T16:36:38.861Z,6.97
2022-09-11T16:39:10.725Z,6.07
2022-09-11T16:41:37.640Z,7.47
2022-09-11T16:44:05.734Z,8.27
2022-09-11T16:46:33.357Z,6.80
2022-09-11T16:49:02.710Z,6.90
2022-09-11T16:51:30.127Z,6.20
2022-09-11T16:53:56.932Z,6.33
2022-09-11T16:56:24.528Z,6.70
2022-09-11T16:58:51.442Z,6.77
2022-09-11T17:01:20.613Z,6.50
2022-09-11T17:03:49.501Z,6.20
2022-09-11T17:06:16.807Z,6.90
2022-09-11T17:08:44.745Z,7.17
2022-09-11T17:11:13.791Z,6.60
2022-09-11T17:13:41.828Z,6.50
2022-09-11T17:16:15.984Z,6.80
2022-09-11T17:18:54.015Z,7.13
2022-09-11T17:21:25.763Z,7.70
2022-09-11T17:23:54.368Z,6.00
2022-09-11T17:26:21.837Z,6.90
2022-09-11T17:28:49.521Z,7.90
2022-09-11T17:31:17.615Z,6.63
2022-09-11T17:33:45.473Z,7.27
2022-09-11T17:36:13.422Z,7.30
2022-09-11T17:38:40.400Z,7.07
2022-09-11T17:41:08.283Z,7.00
2022-09-11T17:43:36.436Z,6.70
2022-09-11T17:46:12.241Z,7.20
2022-09-11T17:48:39.943Z,7.47
2022-09-11T17:51:14.166Z,7.47
2022-09-11T17:53:43.085Z,8.03
2022-09-11T17:56:14.272Z,7.50
2022-09-11T17:58:42.087Z,7.70
2022-09-11T18:01:09.138Z,7.80
2022-09-11T18:03:36.390Z,8.53
2022-09-11T18:06:05.292Z,8.47
2022-09-11T18:08:33.307Z,8.70
2022-09-11T18:11:01.058Z,9.87
2022-09-11T18:13:31.391Z,8.63
2022-09-11T18:15:58.054Z,9.67
2022-09-11T18:18:25.002Z,8.70
2022-09-11T18:20:55.400Z,8.20
2022-09-11T18:23:23.172Z,9.03
2022-09-11T18:25:50.838Z,8.43
2022-09-11T18:28:19.910Z,8.30
2022-09-11T18:30:47.423Z,8.17
2022-09-11T18:33:16.669Z,8.90
2022-09-11T18:35:44.288Z,8.30
2022-09-11T18:38:11.185Z,8.63
2022-09-11T18:40:37.849Z,8.20
2022-09-11T18:43:06.258Z,8.13
2022-09-11T18:45:35.483Z,8.33
2022-09-11T18:48:03.316Z,8.93
2022-09-11T18:50:30.106Z,8.70
2022-09-11T18:52:56.865Z,8.20
2022-09-11T18:55:25.016Z,7.60
2022-09-11T18:57:52.053Z,8.77
2022-09-11T19:00:20.488Z,8.67
2022-09-11T19:02:47.929Z,8.87
2022-09-11T19:05:17.949Z,8.27
2022-09-11T19:07:45.601Z,7.97
2022-09-11T19:10:12.571Z,7.77
2022-09-11T19:12:39.971Z,7.13
2022-09-11T19:15:10.337Z,7.10
2022-09-11T19:17:39.815Z,6.63
2022-09-11T19:20:09.694Z,6.70
2022-09-11T19:22:36.304Z,7.23
2022-09-11T19:25:03.514Z,6.90
2022-09-11T19:27:31.666Z,6.83
2022-09-11T19:29:59.913Z,7.10
2022-09-11T19:32:28.425Z,6.73
2022-09-11T19:34:55.261Z,6.93
2022-09-11T19:37:21.835Z,6.40
2022-09-11T19:39:50.767Z,6.97
2022-09-11T19:42:18.101Z,6.70
2022-09-11T19:44:45.543Z,7.10
2022-09-11T19:47:12.462Z,6.30
2022-09-11T19:49:39.070Z,6.43
2022-09-11T19:52:06.553Z,7.30
2022-09-11T19:54:34.614Z,6.60
2022-09-11T19:57:02.350Z,7.17
2022-09-11T19:59:29.045Z,6.80
2022-09-11T20:01:55.709Z,7.13
2022-09-11T20:04:27.445Z,7.23
2022-09-11T20:09:30.852Z,7.60
2022-09-11T20:11:57.929Z,8.20
2022-09-11T20:14:24.539Z,8.40
2022-09-11T20:16:51.160Z,8.23
2022-09-11T20:19:17.785Z,8.40
2022-09-11T20:21:44.386Z,8.27
2022-09-11T20:24:10.939Z,8.73
2022-09-11T20:26:37.592Z,8.23
2022-09-11T20:29:07.160Z,8.30
2022-09-11T20:31:46.403Z,8.17
2022-09-11T20:34:17.575Z,7.40
2022-09-11T20:36:44.539Z,7.10
2022-09-11T20:39:15.090Z,7.03
2022-09-11T20:41:44.654Z,7.70
2022-09-11T20:44:12.030Z,7.60
2022-09-11T20:46:38.907Z,7.53
2022-09-11T20:49:06.691Z,7.60
2022-09-11T20:51:34.649Z,7.60
2022-09-11T20:54:01.547Z,7.03
2022-09-11T20:56:28.341Z,7.53
2022-09-11T20:58:55.720Z,7.80
2022-09-11T21:01:24.927Z,7.37
2022-09-11T21:03:53.831Z,7.90
2022-09-11T21:06:25.644Z,7.80
2022-09-11T21:08:55.382Z,8.27
2022-09-11T21:11:23.690Z,8.10
2022-09-11T21:13:50.468Z,8.10
2022-09-11T21:16:17.712Z,9.10
2022-09-11T21:18:49.658Z,9.57
2022-09-11T21:21:17.000Z,10.70
2022-09-11T21:23:43.630Z,9.83
2022-09-11T21:26:11.610Z,10.93
2022-09-11T21:28:38.179Z,11.40
2022-09-11T21:31:04.996Z,11.30
2022-09-11T21:33:33.122Z,10.33
2022-09-11T21:35:59.982Z,10.97
2022-09-11T21:38:30.409Z,11.60
2022-09-11T21:40:58.454Z,10.63
2022-09-11T21:43:25.870Z,10.77
2022-09-11T21:45:52.849Z,11.67
2022-09-11T21:48:19.535Z,12.40
2022-09-11T21:50:46.140Z,10.73
2022-09-11T21:53:12.763Z,11.20
2022-09-11T21:55:41.160Z,12.60
2022-09-11T21:58:08.130Z,12.17
2022-09-11T22:00:42.021Z,13.43
2022-09-11T22:03:10.201Z,11.33
2022-09-11T22:05:45.028Z,11.93
2022-09-11T22:08:13.005Z,11.30
2022-09-11T22:10:50.436Z,10.47
2022-09-11T22:13:18.369Z,10.30
2022-09-11T22:15:47.387Z,12.80
2022-09-11T22:18:14.758Z,13.70
2022-09-11T22:20:41.783Z,12.63
2022-09-11T22:23:11.619Z,12.40
2022-09-11T22:25:40.186Z,13.37
2022-09-11T22:28:07.160Z,12.27
2022-09-11T22:30:33.773Z,12.13
2022-09-11T22:33:00.587Z,14.03
2022-09-11T22:35:28.247Z,13.70
2022-09-11T22:37:54.871Z,13.60
2022-09-11T22:40:21.434Z,15.97
2022-09-11T22:42:48.121Z,13.43
2022-09-11T22:45:14.739Z,14.30
2022-09-11T22:47:41.357Z,14.80
2022-09-11T22:50:08.299Z,14.20
2022-09-11T22:52:36.823Z,13.40
2022-09-11T22:55:05.179Z,13.93
2022-09-11T22:57:31.893Z,13.33
2022-09-11T22:59:58.981Z,13.10
2022-09-11T23:02:27.062Z,12.10
2022-09-11T23:05:12.039Z,12.97
2022-09-11T23:07:38.616Z,12.53
2022-09-11T23:10:05.680Z,12.70
2022-09-11T23:12:32.222Z,12.57
2022-09-11T23:14:58.787Z,12.87
2022-09-11T23:17:26.462Z,11.90
2022-09-11T23:19:53.140Z,11.83
2022-09-11T23:22:20.045Z,13.07
2022-09-11T23:24:46.631Z,12.27
2022-09-11T23:27:13.177Z,12.27
2022-09-11T23:29:39.796Z,12.93
2022-09-11T23:32:07.130Z,13.47
2022-09-11T23:34:35.880Z,12.97
2022-09-11T23:37:02.491Z,12.87
2022-09-11T23:39:28.996Z,12.57
2022-09-11T23:41:55.635Z,14.03
2022-09-11T23:44:22.212Z,14.10
2022-09-11T23:46:51.011Z,11.70
2022-09-11T23:49:17.621Z,13.07
2022-09-11T23:51:44.196Z,15.07
2022-09-11T23:54:10.745Z,12.90
2022-09-11T23:56:37.312Z,15.03
2022-09-11T23:59:03.877Z,15.50
